sensor_id;sensor_type;location;lat;lon;timestamp;temperature;humidity
43999;DHT22;51319;52.162;5.302;2023-12-04T00:00:21;0.90;99.90
43999;DHT22;51319;52.162;5.302;2023-12-04T00:02:48;0.90;99.90
43999;DHT22;51319;52.162;5.302;2023-12-04T00:05:15;1.00;99.90
43999;DHT22;51319;52.162;5.302;2023-12-04T00:07:42;1.00;99.90
43999;DHT22;51319;52.162;5.302;2023-12-04T00:10:09;1.00;99.90
43999;DHT22;51319;52.162;5.302;2023-12-04T00:12:36;1.00;99.90
43999;DHT22;51319;52.162;5.302;2023-12-04T00:15:04;1.00;99.90
43999;DHT22;51319;52.162;5.302;2023-12-04T00:17:31;1.10;99.90
43999;DHT22;51319;52.162;5.302;2023-12-04T00:19:58;1.10;99.90
43999;DHT22;51319;52.162;5.302;2023-12-04T00:22:25;1.10;99.90
43999;DHT22;51319;52.162;5.302;2023-12-04T00:24:53;1.10;99.90
43999;DHT22;51319;52.162;5.302;2023-12-04T00:27:20;1.10;99.90
43999;DHT22;51319;52.162;5.302;2023-12-04T00:29:47;1.10;99.90
43999;DHT22;51319;52.162;5.302;2023-12-04T00:32:14;1.10;99.90
43999;DHT22;51319;52.162;5.302;2023-12-04T00:34:41;1.00;99.90
43999;DHT22;51319;52.162;5.302;2023-12-04T00:37:08;1.00;99.90
43999;DHT22;51319;52.162;5.302;2023-12-04T00:39:36;1.00;99.90
43999;DHT22;51319;52.162;5.302;2023-12-04T00:42:03;1.00;99.90
43999;DHT22;51319;52.162;5.302;2023-12-04T00:44:30;1.00;99.90
43999;DHT22;51319;52.162;5.302;2023-12-04T00:46:59;1.00;99.90
43999;DHT22;51319;52.162;5.302;2023-12-04T00:49:26;1.10;99.90
43999;DHT22;51319;52.162;5.302;2023-12-04T00:51:53;1.10;99.90
43999;DHT22;51319;52.162;5.302;2023-12-04T00:54:20;1.10;99.90
43999;DHT22;51319;52.162;5.302;2023-12-04T00:56:47;1.10;99.90
43999;DHT22;51319;52.162;5.302;2023-12-04T00:59:14;1.00;99.90
43999;DHT22;51319;52.162;5.302;2023-12-04T01:01:40;1.00;99.90
43999;DHT22;51319;52.162;5.302;2023-12-04T01:04:08;1.00;99.90
43999;DHT22;51319;52.162;5.302;2023-12-04T01:06:35;1.00;99.90
43999;DHT22;51319;52.162;5.302;2023-12-04T01:09:05;1.10;99.90
43999;DHT22;51319;52.162;5.302;2023-12-04T01:11:32;1.00;99.90
43999;DHT22;51319;52.162;5.302;2023-12-04T01:13:59;1.10;99.90
43999;DHT22;51319;52.162;5.302;2023-12-04T01:16:26;1.00;99.90
43999;DHT22;51319;52.162;5.302;2023-12-04T01:18:53;1.10;99.90
43999;DHT22;51319;52.162;5.302;2023-12-04T01:21:21;1.10;99.90
43999;DHT22;51319;52.162;5.302;2023-12-04T01:23:54;1.10;99.90
43999;DHT22;51319;52.162;5.302;2023-12-04T01:26:26;1.10;99.90
43999;DHT22;51319;52.162;5.302;2023-12-04T01:28:53;1.10;99.90
43999;DHT22;51319;52.162;5.302;2023-12-04T01:31:20;1.00;99.90
43999;DHT22;51319;52.162;5.302;2023-12-04T01:33:47;1.00;99.90
43999;DHT22;51319;52.162;5.302;2023-12-04T01:36:15;1.00;99.90
43999;DHT22;51319;52.162;5.302;2023-12-04T01:38:50;1.00;99.90
43999;DHT22;51319;52.162;5.302;2023-12-04T01:41:18;0.90;99.90
43999;DHT22;51319;52.162;5.302;2023-12-04T01:43:45;0.90;99.90
43999;DHT22;51319;52.162;5.302;2023-12-04T01:46:14;0.80;99.90
43999;DHT22;51319;52.162;5.302;2023-12-04T01:48:45;0.80;99.90
43999;DHT22;51319;52.162;5.302;2023-12-04T01:51:17;0.80;99.90
43999;DHT22;51319;52.162;5.302;2023-12-04T01:53:45;0.90;99.90
43999;DHT22;51319;52.162;5.302;2023-12-04T01:56:14;0.90;99.90
43999;DHT22;51319;52.162;5.302;2023-12-04T01:58:42;0.80;99.90
43999;DHT22;51319;52.162;5.302;2023-12-04T02:01:09;0.90;99.90
43999;DHT22;51319;52.162;5.302;2023-12-04T02:03:40;0.80;99.90
43999;DHT22;51319;52.162;5.302;2023-12-04T02:06:12;0.80;99.90
43999;DHT22;51319;52.162;5.302;2023-12-04T02:08:42;0.80;99.90
43999;DHT22;51319;52.162;5.302;2023-12-04T02:11:10;0.90;99.90
43999;DHT22;51319;52.162;5.302;2023-12-04T02:13:41;0.90;99.90
43999;DHT22;51319;52.162;5.302;2023-12-04T02:16:12;0.90;99.90
43999;DHT22;51319;52.162;5.302;2023-12-04T02:18:43;0.90;99.90
43999;DHT22;51319;52.162;5.302;2023-12-04T02:21:10;0.90;99.90
43999;DHT22;51319;52.162;5.302;2023-12-04T02:23:37;0.90;99.90
43999;DHT22;51319;52.162;5.302;2023-12-04T02:26:16;0.90;99.90
43999;DHT22;51319;52.162;5.302;2023-12-04T02:28:55;1.00;99.90
43999;DHT22;51319;52.162;5.302;2023-12-04T02:31:27;1.00;99.90
43999;DHT22;51319;52.162;5.302;2023-12-04T02:33:57;1.00;99.90
43999;DHT22;51319;52.162;5.302;2023-12-04T02:36:31;1.00;99.90
43999;DHT22;51319;52.162;5.302;2023-12-04T02:39:02;1.00;99.90
43999;DHT22;51319;52.162;5.302;2023-12-04T02:41:31;1.00;99.90
43999;DHT22;51319;52.162;5.302;2023-12-04T02:43:58;1.00;99.90
43999;DHT22;51319;52.162;5.302;2023-12-04T02:46:27;1.00;99.90
43999;DHT22;51319;52.162;5.302;2023-12-04T02:48:54;1.00;99.90
43999;DHT22;51319;52.162;5.302;2023-12-04T02:51:23;0.90;99.90
43999;DHT22;51319;52.162;5.302;2023-12-04T02:53:57;0.90;99.90
43999;DHT22;51319;52.162;5.302;2023-12-04T02:56:24;0.90;99.90
43999;DHT22;51319;52.162;5.302;2023-12-04T02:58:51;0.90;99.90
43999;DHT22;51319;52.162;5.302;2023-12-04T03:01:18;0.90;99.90
43999;DHT22;51319;52.162;5.302;2023-12-04T03:03:46;0.90;99.90
43999;DHT22;51319;52.162;5.302;2023-12-04T03:06:25;0.90;99.90
43999;DHT22;51319;52.162;5.302;2023-12-04T03:08:54;0.90;99.90
43999;DHT22;51319;52.162;5.302;2023-12-04T03:11:22;0.90;99.90
43999;DHT22;51319;52.162;5.302;2023-12-04T03:13:49;0.90;99.90
43999;DHT22;51319;52.162;5.302;2023-12-04T03:16:17;0.90;99.90
43999;DHT22;51319;52.162;5.302;2023-12-04T03:18:45;0.90;99.90
43999;DHT22;51319;52.162;5.302;2023-12-04T03:21:12;0.90;99.90
43999;DHT22;51319;52.162;5.302;2023-12-04T03:23:40;0.90;99.90
43999;DHT22;51319;52.162;5.302;2023-12-04T03:26:07;0.80;99.90
43999;DHT22;51319;52.162;5.302;2023-12-04T03:28:34;0.80;99.90
43999;DHT22;51319;52.162;5.302;2023-12-04T03:31:02;0.80;99.90
43999;DHT22;51319;52.162;5.302;2023-12-04T03:33:29;0.80;99.90
43999;DHT22;51319;52.162;5.302;2023-12-04T03:35:59;0.80;99.90
43999;DHT22;51319;52.162;5.302;2023-12-04T03:38:26;0.80;99.90
43999;DHT22;51319;52.162;5.302;2023-12-04T03:40:54;0.80;99.90
43999;DHT22;51319;52.162;5.302;2023-12-04T03:43:21;0.80;99.90
43999;DHT22;51319;52.162;5.302;2023-12-04T03:45:49;0.80;99.90
43999;DHT22;51319;52.162;5.302;2023-12-04T03:48:18;0.70;99.90
43999;DHT22;51319;52.162;5.302;2023-12-04T03:50:46;0.70;99.90
43999;DHT22;51319;52.162;5.302;2023-12-04T03:53:14;0.70;99.90
43999;DHT22;51319;52.162;5.302;2023-12-04T03:55:41;0.70;99.90
43999;DHT22;51319;52.162;5.302;2023-12-04T03:58:11;0.70;99.90
43999;DHT22;51319;52.162;5.302;2023-12-04T04:00:39;0.70;99.90
43999;DHT22;51319;52.162;5.302;2023-12-04T04:03:08;0.70;99.90
43999;DHT22;51319;52.162;5.302;2023-12-04T04:05:42;0.60;99.90
43999;DHT22;51319;52.162;5.302;2023-12-04T04:08:09;0.60;99.90
43999;DHT22;51319;52.162;5.302;2023-12-04T04:10:36;0.60;99.90
43999;DHT22;51319;52.162;5.302;2023-12-04T04:13:03;0.60;99.90
43999;DHT22;51319;52.162;5.302;2023-12-04T04:15:31;0.60;99.90
43999;DHT22;51319;52.162;5.302;2023-12-04T04:17:58;0.60;99.90
43999;DHT22;51319;52.162;5.302;2023-12-04T04:20:25;0.60;99.90
43999;DHT22;51319;52.162;5.302;2023-12-04T04:22:53;0.60;99.90
43999;DHT22;51319;52.162;5.302;2023-12-04T04:25:21;0.60;99.90
43999;DHT22;51319;52.162;5.302;2023-12-04T04:27:52;0.60;99.90
43999;DHT22;51319;52.162;5.302;2023-12-04T04:30:20;0.60;99.90
43999;DHT22;51319;52.162;5.302;2023-12-04T04:32:47;0.60;99.90
43999;DHT22;51319;52.162;5.302;2023-12-04T04:35:14;0.60;99.90
43999;DHT22;51319;52.162;5.302;2023-12-04T04:37:41;0.70;99.90
43999;DHT22;51319;52.162;5.302;2023-12-04T04:40:11;0.70;99.90
43999;DHT22;51319;52.162;5.302;2023-12-04T04:42:38;0.70;99.90
43999;DHT22;51319;52.162;5.302;2023-12-04T04:45:07;0.70;99.90
43999;DHT22;51319;52.162;5.302;2023-12-04T04:47:34;0.70;99.90
43999;DHT22;51319;52.162;5.302;2023-12-04T04:50:02;0.70;99.90
43999;DHT22;51319;52.162;5.302;2023-12-04T04:52:30;0.70;99.90
43999;DHT22;51319;52.162;5.302;2023-12-04T04:54:58;0.70;99.90
43999;DHT22;51319;52.162;5.302;2023-12-04T04:57:29;0.70;99.90
43999;DHT22;51319;52.162;5.302;2023-12-04T04:59:57;0.70;99.90
43999;DHT22;51319;52.162;5.302;2023-12-04T05:02:24;0.70;99.90
43999;DHT22;51319;52.162;5.302;2023-12-04T05:04:51;0.70;99.90
43999;DHT22;51319;52.162;5.302;2023-12-04T05:07:20;0.70;99.90
43999;DHT22;51319;52.162;5.302;2023-12-04T05:09:47;0.70;99.90
43999;DHT22;51319;52.162;5.302;2023-12-04T05:12:14;0.70;99.90
43999;DHT22;51319;52.162;5.302;2023-12-04T05:14:44;0.70;99.90
43999;DHT22;51319;52.162;5.302;2023-12-04T05:17:11;0.70;99.90
43999;DHT22;51319;52.162;5.302;2023-12-04T05:19:38;0.80;99.90
43999;DHT22;51319;52.162;5.302;2023-12-04T05:22:09;0.70;99.90
43999;DHT22;51319;52.162;5.302;2023-12-04T05:24:36;0.70;99.90
43999;DHT22;51319;52.162;5.302;2023-12-04T05:27:03;0.80;99.90
43999;DHT22;51319;52.162;5.302;2023-12-04T05:29:31;0.70;99.90
43999;DHT22;51319;52.162;5.302;2023-12-04T05:31:58;0.70;99.90
43999;DHT22;51319;52.162;5.302;2023-12-04T05:34:25;0.80;99.90
43999;DHT22;51319;52.162;5.302;2023-12-04T05:36:52;0.80;99.90
43999;DHT22;51319;52.162;5.302;2023-12-04T05:39:19;0.80;99.90
43999;DHT22;51319;52.162;5.302;2023-12-04T05:41:46;0.80;99.90
43999;DHT22;51319;52.162;5.302;2023-12-04T05:44:13;0.80;99.90
43999;DHT22;51319;52.162;5.302;2023-12-04T05:46:41;0.80;99.90
43999;DHT22;51319;52.162;5.302;2023-12-04T05:49:08;0.80;99.90
43999;DHT22;51319;52.162;5.302;2023-12-04T05:51:37;0.80;99.90
43999;DHT22;51319;52.162;5.302;2023-12-04T05:54:05;0.90;99.90
43999;DHT22;51319;52.162;5.302;2023-12-04T05:56:34;0.90;99.90
43999;DHT22;51319;52.162;5.302;2023-12-04T05:59:03;0.90;99.90
43999;DHT22;51319;52.162;5.302;2023-12-04T06:01:31;0.90;99.90
43999;DHT22;51319;52.162;5.302;2023-12-04T06:03:59;0.90;99.90
43999;DHT22;51319;52.162;5.302;2023-12-04T06:06:28;0.90;99.90
43999;DHT22;51319;52.162;5.302;2023-12-04T06:08:55;0.90;99.90
43999;DHT22;51319;52.162;5.302;2023-12-04T06:11:22;0.90;99.90
43999;DHT22;51319;52.162;5.302;2023-12-04T06:13:50;0.90;99.90
43999;DHT22;51319;52.162;5.302;2023-12-04T06:16:17;1.00;99.90
43999;DHT22;51319;52.162;5.302;2023-12-04T06:18:44;1.00;99.90
43999;DHT22;51319;52.162;5.302;2023-12-04T06:21:11;1.00;99.90
43999;DHT22;51319;52.162;5.302;2023-12-04T06:23:38;1.00;99.90
43999;DHT22;51319;52.162;5.302;2023-12-04T06:26:06;1.00;99.90
43999;DHT22;51319;52.162;5.302;2023-12-04T06:28:33;1.00;99.90
43999;DHT22;51319;52.162;5.302;2023-12-04T06:31:00;1.10;99.90
43999;DHT22;51319;52.162;5.302;2023-12-04T06:33:28;1.00;99.90
43999;DHT22;51319;52.162;5.302;2023-12-04T06:35:56;1.10;99.90
43999;DHT22;51319;52.162;5.302;2023-12-04T06:38:25;1.00;99.90
43999;DHT22;51319;52.162;5.302;2023-12-04T06:40:52;1.10;99.90
43999;DHT22;51319;52.162;5.302;2023-12-04T06:43:19;1.10;99.90
43999;DHT22;51319;52.162;5.302;2023-12-04T06:45:47;1.10;99.90
43999;DHT22;51319;52.162;5.302;2023-12-04T06:48:16;1.10;99.90
43999;DHT22;51319;52.162;5.302;2023-12-04T06:50:44;1.00;99.90
43999;DHT22;51319;52.162;5.302;2023-12-04T06:53:11;1.10;99.90
43999;DHT22;51319;52.162;5.302;2023-12-04T06:55:38;1.10;99.90
43999;DHT22;51319;52.162;5.302;2023-12-04T06:58:05;1.10;99.90
43999;DHT22;51319;52.162;5.302;2023-12-04T07:00:32;1.10;99.90
43999;DHT22;51319;52.162;5.302;2023-12-04T07:02:59;1.10;99.90
43999;DHT22;51319;52.162;5.302;2023-12-04T07:05:26;1.00;99.90
43999;DHT22;51319;52.162;5.302;2023-12-04T07:07:53;1.10;99.90
43999;DHT22;51319;52.162;5.302;2023-12-04T07:10:20;1.10;99.90
43999;DHT22;51319;52.162;5.302;2023-12-04T07:12:47;1.10;99.90
43999;DHT22;51319;52.162;5.302;2023-12-04T07:15:14;1.10;99.90
43999;DHT22;51319;52.162;5.302;2023-12-04T07:17:42;1.10;99.90
43999;DHT22;51319;52.162;5.302;2023-12-04T07:20:09;1.10;99.90
43999;DHT22;51319;52.162;5.302;2023-12-04T07:22:38;1.10;99.90
43999;DHT22;51319;52.162;5.302;2023-12-04T07:25:06;1.10;99.90
43999;DHT22;51319;52.162;5.302;2023-12-04T07:27:36;1.20;99.90
43999;DHT22;51319;52.162;5.302;2023-12-04T07:30:04;1.10;99.90
43999;DHT22;51319;52.162;5.302;2023-12-04T07:32:31;1.10;99.90
43999;DHT22;51319;52.162;5.302;2023-12-04T07:35:00;1.20;99.90
43999;DHT22;51319;52.162;5.302;2023-12-04T07:37:27;1.20;99.90
43999;DHT22;51319;52.162;5.302;2023-12-04T07:39:56;1.10;99.90
43999;DHT22;51319;52.162;5.302;2023-12-04T07:42:23;1.20;99.90
43999;DHT22;51319;52.162;5.302;2023-12-04T07:44:50;1.20;99.90
43999;DHT22;51319;52.162;5.302;2023-12-04T07:47:17;1.20;99.90
43999;DHT22;51319;52.162;5.302;2023-12-04T07:49:45;1.10;99.90
43999;DHT22;51319;52.162;5.302;2023-12-04T07:52:12;1.20;99.90
43999;DHT22;51319;52.162;5.302;2023-12-04T07:54:39;1.20;99.90
43999;DHT22;51319;52.162;5.302;2023-12-04T07:57:07;1.20;99.90
43999;DHT22;51319;52.162;5.302;2023-12-04T07:59:34;1.20;99.90
43999;DHT22;51319;52.162;5.302;2023-12-04T08:02:01;1.20;99.90
43999;DHT22;51319;52.162;5.302;2023-12-04T08:04:28;1.20;99.90
43999;DHT22;51319;52.162;5.302;2023-12-04T08:06:55;1.20;99.90
43999;DHT22;51319;52.162;5.302;2023-12-04T08:09:23;1.30;99.90
43999;DHT22;51319;52.162;5.302;2023-12-04T08:11:50;1.30;99.90
43999;DHT22;51319;52.162;5.302;2023-12-04T08:14:20;1.30;99.90
43999;DHT22;51319;52.162;5.302;2023-12-04T08:16:48;1.30;99.90
43999;DHT22;51319;52.162;5.302;2023-12-04T08:19:16;1.40;99.90
43999;DHT22;51319;52.162;5.302;2023-12-04T08:21:43;1.30;99.90
43999;DHT22;51319;52.162;5.302;2023-12-04T08:24:10;1.40;99.90
43999;DHT22;51319;52.162;5.302;2023-12-04T08:26:36;1.40;99.90
43999;DHT22;51319;52.162;5.302;2023-12-04T08:29:05;1.40;99.90
43999;DHT22;51319;52.162;5.302;2023-12-04T08:31:32;1.40;99.90
43999;DHT22;51319;52.162;5.302;2023-12-04T08:33:59;1.50;99.90
43999;DHT22;51319;52.162;5.302;2023-12-04T08:36:26;1.50;99.90
43999;DHT22;51319;52.162;5.302;2023-12-04T08:38:53;1.50;99.90
43999;DHT22;51319;52.162;5.302;2023-12-04T08:41:21;1.50;99.90
43999;DHT22;51319;52.162;5.302;2023-12-04T08:43:48;1.50;99.90
43999;DHT22;51319;52.162;5.302;2023-12-04T08:46:15;1.50;99.90
43999;DHT22;51319;52.162;5.302;2023-12-04T08:48:42;1.50;99.90
43999;DHT22;51319;52.162;5.302;2023-12-04T08:51:15;1.60;99.90
43999;DHT22;51319;52.162;5.302;2023-12-04T08:53:45;1.60;99.90
43999;DHT22;51319;52.162;5.302;2023-12-04T08:56:12;1.60;99.90
43999;DHT22;51319;52.162;5.302;2023-12-04T08:58:47;1.70;99.90
43999;DHT22;51319;52.162;5.302;2023-12-04T09:01:17;1.70;99.90
43999;DHT22;51319;52.162;5.302;2023-12-04T09:03:44;1.80;99.90
43999;DHT22;51319;52.162;5.302;2023-12-04T09:06:11;1.80;99.90
43999;DHT22;51319;52.162;5.302;2023-12-04T09:08:38;1.90;99.90
43999;DHT22;51319;52.162;5.302;2023-12-04T09:11:15;2.00;99.90
43999;DHT22;51319;52.162;5.302;2023-12-04T09:13:49;2.00;99.90
43999;DHT22;51319;52.162;5.302;2023-12-04T09:16:16;2.00;99.90
43999;DHT22;51319;52.162;5.302;2023-12-04T09:18:44;2.10;99.90
43999;DHT22;51319;52.162;5.302;2023-12-04T09:21:11;2.10;99.90
43999;DHT22;51319;52.162;5.302;2023-12-04T09:23:38;2.10;99.90
43999;DHT22;51319;52.162;5.302;2023-12-04T09:26:05;2.20;99.90
43999;DHT22;51319;52.162;5.302;2023-12-04T09:28:32;2.20;99.90
43999;DHT22;51319;52.162;5.302;2023-12-04T09:30:59;2.20;99.90
43999;DHT22;51319;52.162;5.302;2023-12-04T09:33:26;2.30;99.90
43999;DHT22;51319;52.162;5.302;2023-12-04T09:35:53;2.30;99.90
43999;DHT22;51319;52.162;5.302;2023-12-04T09:38:20;2.30;99.90
43999;DHT22;51319;52.162;5.302;2023-12-04T09:40:47;2.30;99.90
43999;DHT22;51319;52.162;5.302;2023-12-04T09:43:15;2.30;99.90
43999;DHT22;51319;52.162;5.302;2023-12-04T09:45:42;2.40;99.90
43999;DHT22;51319;52.162;5.302;2023-12-04T09:48:10;2.30;99.90
43999;DHT22;51319;52.162;5.302;2023-12-04T09:50:38;2.40;99.60
43999;DHT22;51319;52.162;5.302;2023-12-04T09:53:08;2.40;99.30
43999;DHT22;51319;52.162;5.302;2023-12-04T09:55:37;2.30;99.10
43999;DHT22;51319;52.162;5.302;2023-12-04T09:58:04;2.30;99.00
43999;DHT22;51319;52.162;5.302;2023-12-04T10:00:32;2.30;98.90
43999;DHT22;51319;52.162;5.302;2023-12-04T10:03:00;2.30;98.70
43999;DHT22;51319;52.162;5.302;2023-12-04T10:05:28;2.30;98.50
43999;DHT22;51319;52.162;5.302;2023-12-04T10:07:55;2.30;98.40
43999;DHT22;51319;52.162;5.302;2023-12-04T10:10:23;2.40;98.30
43999;DHT22;51319;52.162;5.302;2023-12-04T10:12:51;2.40;98.10
43999;DHT22;51319;52.162;5.302;2023-12-04T10:15:18;2.40;98.00
43999;DHT22;51319;52.162;5.302;2023-12-04T10:17:45;2.50;97.90
43999;DHT22;51319;52.162;5.302;2023-12-04T10:20:14;2.50;97.70
43999;DHT22;51319;52.162;5.302;2023-12-04T10:23:01;2.60;97.60
43999;DHT22;51319;52.162;5.302;2023-12-04T10:25:30;2.70;97.40
43999;DHT22;51319;52.162;5.302;2023-12-04T10:28:12;2.80;97.40
43999;DHT22;51319;52.162;5.302;2023-12-04T10:30:39;2.80;97.00
43999;DHT22;51319;52.162;5.302;2023-12-04T10:33:07;2.90;97.00
43999;DHT22;51319;52.162;5.302;2023-12-04T10:35:36;2.90;96.70
43999;DHT22;51319;52.162;5.302;2023-12-04T10:38:04;3.00;96.50
43999;DHT22;51319;52.162;5.302;2023-12-04T10:40:33;3.00;96.10
43999;DHT22;51319;52.162;5.302;2023-12-04T10:43:19;3.00;95.90
43999;DHT22;51319;52.162;5.302;2023-12-04T10:45:49;3.10;95.70
43999;DHT22;51319;52.162;5.302;2023-12-04T10:48:17;3.10;95.80
43999;DHT22;51319;52.162;5.302;2023-12-04T10:50:47;3.10;95.40
43999;DHT22;51319;52.162;5.302;2023-12-04T10:53:15;3.10;95.30
43999;DHT22;51319;52.162;5.302;2023-12-04T10:55:44;3.10;95.30
43999;DHT22;51319;52.162;5.302;2023-12-04T10:58:13;3.10;95.20
43999;DHT22;51319;52.162;5.302;2023-12-04T11:00:48;3.10;95.30
43999;DHT22;51319;52.162;5.302;2023-12-04T11:03:21;3.10;95.20
43999;DHT22;51319;52.162;5.302;2023-12-04T11:05:55;3.00;95.10
43999;DHT22;51319;52.162;5.302;2023-12-04T11:08:23;3.00;95.10
43999;DHT22;51319;52.162;5.302;2023-12-04T11:10:58;3.00;95.10
43999;DHT22;51319;52.162;5.302;2023-12-04T11:13:30;3.00;95.00
43999;DHT22;51319;52.162;5.302;2023-12-04T11:16:07;3.10;95.10
43999;DHT22;51319;52.162;5.302;2023-12-04T11:18:36;3.10;94.90
43999;DHT22;51319;52.162;5.302;2023-12-04T11:21:10;3.10;94.90
43999;DHT22;51319;52.162;5.302;2023-12-04T11:23:37;3.10;94.80
43999;DHT22;51319;52.162;5.302;2023-12-04T11:26:07;3.20;94.70
43999;DHT22;51319;52.162;5.302;2023-12-04T11:28:36;3.20;94.60
43999;DHT22;51319;52.162;5.302;2023-12-04T11:31:05;3.20;94.60
43999;DHT22;51319;52.162;5.302;2023-12-04T11:36:18;3.20;94.60
43999;DHT22;51319;52.162;5.302;2023-12-04T11:38:46;3.20;94.40
43999;DHT22;51319;52.162;5.302;2023-12-04T11:41:20;3.30;94.40
43999;DHT22;51319;52.162;5.302;2023-12-04T11:43:56;3.30;94.40
43999;DHT22;51319;52.162;5.302;2023-12-04T11:46:24;3.30;94.30
43999;DHT22;51319;52.162;5.302;2023-12-04T11:48:57;3.30;94.50
43999;DHT22;51319;52.162;5.302;2023-12-04T11:54:09;3.20;94.40
43999;DHT22;51319;52.162;5.302;2023-12-04T11:56:37;3.10;94.50
43999;DHT22;51319;52.162;5.302;2023-12-04T11:59:05;3.10;94.40
43999;DHT22;51319;52.162;5.302;2023-12-04T12:01:36;3.10;94.40
43999;DHT22;51319;52.162;5.302;2023-12-04T12:04:09;3.10;94.40
43999;DHT22;51319;52.162;5.302;2023-12-04T12:06:38;3.10;94.40
43999;DHT22;51319;52.162;5.302;2023-12-04T12:09:10;3.10;94.50
43999;DHT22;51319;52.162;5.302;2023-12-04T12:11:54;3.10;94.60
43999;DHT22;51319;52.162;5.302;2023-12-04T12:14:32;3.10;94.60
43999;DHT22;51319;52.162;5.302;2023-12-04T12:17:04;3.10;94.70
43999;DHT22;51319;52.162;5.302;2023-12-04T12:19:53;3.20;94.60
43999;DHT22;51319;52.162;5.302;2023-12-04T12:22:25;3.20;94.20
43999;DHT22;51319;52.162;5.302;2023-12-04T12:24:52;3.30;94.30
43999;DHT22;51319;52.162;5.302;2023-12-04T12:27:20;3.30;94.20
43999;DHT22;51319;52.162;5.302;2023-12-04T12:29:47;3.30;94.20
43999;DHT22;51319;52.162;5.302;2023-12-04T12:32:15;3.30;94.20
43999;DHT22;51319;52.162;5.302;2023-12-04T12:34:43;3.30;94.20
43999;DHT22;51319;52.162;5.302;2023-12-04T12:37:10;3.30;94.20
43999;DHT22;51319;52.162;5.302;2023-12-04T12:39:37;3.30;94.20
43999;DHT22;51319;52.162;5.302;2023-12-04T12:42:05;3.30;94.20
43999;DHT22;51319;52.162;5.302;2023-12-04T12:44:40;3.30;94.30
43999;DHT22;51319;52.162;5.302;2023-12-04T12:47:07;3.30;94.30
43999;DHT22;51319;52.162;5.302;2023-12-04T12:49:34;3.30;94.30
43999;DHT22;51319;52.162;5.302;2023-12-04T12:52:07;3.30;94.20
43999;DHT22;51319;52.162;5.302;2023-12-04T12:54:37;3.30;94.10
43999;DHT22;51319;52.162;5.302;2023-12-04T12:57:05;3.40;94.00
43999;DHT22;51319;52.162;5.302;2023-12-04T12:59:33;3.40;93.90
43999;DHT22;51319;52.162;5.302;2023-12-04T13:02:00;3.40;93.90
43999;DHT22;51319;52.162;5.302;2023-12-04T13:09:52;3.40;93.80
43999;DHT22;51319;52.162;5.302;2023-12-04T13:12:20;3.40;93.90
43999;DHT22;51319;52.162;5.302;2023-12-04T13:14:47;3.40;93.70
43999;DHT22;51319;52.162;5.302;2023-12-04T13:17:14;3.40;93.70
43999;DHT22;51319;52.162;5.302;2023-12-04T13:19:41;3.40;93.70
43999;DHT22;51319;52.162;5.302;2023-12-04T13:22:13;3.50;93.70
43999;DHT22;51319;52.162;5.302;2023-12-04T13:24:41;3.40;93.60
43999;DHT22;51319;52.162;5.302;2023-12-04T13:27:08;3.40;93.70
43999;DHT22;51319;52.162;5.302;2023-12-04T13:29:36;3.30;93.50
43999;DHT22;51319;52.162;5.302;2023-12-04T13:32:03;3.30;93.50
43999;DHT22;51319;52.162;5.302;2023-12-04T13:34:31;3.20;93.40
43999;DHT22;51319;52.162;5.302;2023-12-04T13:36:58;3.20;93.50
43999;DHT22;51319;52.162;5.302;2023-12-04T13:39:26;3.20;93.50
43999;DHT22;51319;52.162;5.302;2023-12-04T13:42:11;3.10;93.40
43999;DHT22;51319;52.162;5.302;2023-12-04T13:44:57;3.10;93.60
43999;DHT22;51319;52.162;5.302;2023-12-04T13:47:24;3.10;93.80
43999;DHT22;51319;52.162;5.302;2023-12-04T13:49:51;3.10;93.80
43999;DHT22;51319;52.162;5.302;2023-12-04T13:55:03;3.10;94.10
43999;DHT22;51319;52.162;5.302;2023-12-04T13:57:43;3.00;94.20
43999;DHT22;51319;52.162;5.302;2023-12-04T14:00:42;3.10;94.40
43999;DHT22;51319;52.162;5.302;2023-12-04T14:03:10;3.00;94.60
43999;DHT22;51319;52.162;5.302;2023-12-04T14:05:38;3.00;94.70
43999;DHT22;51319;52.162;5.302;2023-12-04T14:08:05;3.00;94.80
43999;DHT22;51319;52.162;5.302;2023-12-04T14:10:33;3.00;95.00
43999;DHT22;51319;52.162;5.302;2023-12-04T14:13:01;3.00;95.10
43999;DHT22;51319;52.162;5.302;2023-12-04T14:15:28;3.00;95.20
43999;DHT22;51319;52.162;5.302;2023-12-04T14:17:55;3.00;95.20
43999;DHT22;51319;52.162;5.302;2023-12-04T14:20:23;3.00;95.20
43999;DHT22;51319;52.162;5.302;2023-12-04T14:22:52;3.00;95.20
43999;DHT22;51319;52.162;5.302;2023-12-04T14:25:20;3.00;95.30
43999;DHT22;51319;52.162;5.302;2023-12-04T14:27:47;3.00;95.30
43999;DHT22;51319;52.162;5.302;2023-12-04T14:30:14;3.10;95.30
43999;DHT22;51319;52.162;5.302;2023-12-04T14:32:41;3.00;95.20
43999;DHT22;51319;52.162;5.302;2023-12-04T14:35:14;3.00;95.20
43999;DHT22;51319;52.162;5.302;2023-12-04T14:37:42;3.00;95.20
43999;DHT22;51319;52.162;5.302;2023-12-04T14:40:12;3.10;95.30
43999;DHT22;51319;52.162;5.302;2023-12-04T14:42:40;3.10;95.30
43999;DHT22;51319;52.162;5.302;2023-12-04T14:45:08;3.00;95.20
43999;DHT22;51319;52.162;5.302;2023-12-04T14:47:35;3.00;95.20
43999;DHT22;51319;52.162;5.302;2023-12-04T14:50:04;3.00;95.20
43999;DHT22;51319;52.162;5.302;2023-12-04T14:52:31;3.00;95.30
43999;DHT22;51319;52.162;5.302;2023-12-04T14:55:00;3.00;95.40
43999;DHT22;51319;52.162;5.302;2023-12-04T15:00:10;2.90;95.50
43999;DHT22;51319;52.162;5.302;2023-12-04T15:02:41;2.90;95.50
43999;DHT22;51319;52.162;5.302;2023-12-04T15:05:09;2.80;95.60
43999;DHT22;51319;52.162;5.302;2023-12-04T15:07:36;2.80;95.80
43999;DHT22;51319;52.162;5.302;2023-12-04T15:10:22;2.80;95.90
43999;DHT22;51319;52.162;5.302;2023-12-04T15:12:54;2.80;96.00
43999;DHT22;51319;52.162;5.302;2023-12-04T15:15:27;2.80;96.20
43999;DHT22;51319;52.162;5.302;2023-12-04T15:18:13;2.70;96.20
43999;DHT22;51319;52.162;5.302;2023-12-04T15:20:58;2.70;96.30
43999;DHT22;51319;52.162;5.302;2023-12-04T15:23:25;2.70;96.50
43999;DHT22;51319;52.162;5.302;2023-12-04T15:25:54;2.60;96.70
43999;DHT22;51319;52.162;5.302;2023-12-04T15:28:22;2.70;97.00
43999;DHT22;51319;52.162;5.302;2023-12-04T15:30:49;2.60;97.10
43999;DHT22;51319;52.162;5.302;2023-12-04T15:33:19;2.60;97.30
43999;DHT22;51319;52.162;5.302;2023-12-04T15:35:47;2.70;97.40
43999;DHT22;51319;52.162;5.302;2023-12-04T15:38:14;2.60;97.60
43999;DHT22;51319;52.162;5.302;2023-12-04T15:40:42;2.60;97.80
43999;DHT22;51319;52.162;5.302;2023-12-04T15:45:56;2.60;98.10
43999;DHT22;51319;52.162;5.302;2023-12-04T15:48:28;2.60;98.30
43999;DHT22;51319;52.162;5.302;2023-12-04T15:50:57;2.60;98.50
43999;DHT22;51319;52.162;5.302;2023-12-04T15:53:24;2.60;98.70
43999;DHT22;51319;52.162;5.302;2023-12-04T15:55:53;2.60;98.80
43999;DHT22;51319;52.162;5.302;2023-12-04T15:58:20;2.60;99.10
43999;DHT22;51319;52.162;5.302;2023-12-04T16:00:50;2.60;99.30
43999;DHT22;51319;52.162;5.302;2023-12-04T16:03:18;2.60;99.50
43999;DHT22;51319;52.162;5.302;2023-12-04T16:05:45;2.60;99.70
43999;DHT22;51319;52.162;5.302;2023-12-04T16:08:13;2.60;99.80
43999;DHT22;51319;52.162;5.302;2023-12-04T16:10:40;2.60;99.90
43999;DHT22;51319;52.162;5.302;2023-12-04T16:13:07;2.60;99.90